Time;durP1;ratioP1;P1;durP2;ratioP2;P2;SDS_P1;SDS_P2;PMS_P1;PMS_P2;Temp;Humidity;BMP_temperature;BMP_pressure;BME280_temperature;BME280_humidity;BME280_pressure;Samples;Min_cycle;Max_cycle;Signal;HPM_P1;HPM_P2
2021/12/20 00:00:30;;;;;;;1.83;1.70;;;0.40;1.40;;;1.04;100.00;95991.41;647649;216;31673;-75
2021/12/20 00:03:11;;;;;;;1.80;1.70;;;0.40;1.40;;;0.99;100.00;95982.89;647011;216;42288;-74
2021/12/20 00:05:56;;;;;;;4.90;2.30;;;0.40;1.40;;;1.04;100.00;95978.59;638099;214;42381;-75
2021/12/20 00:08:38;;;;;;;1.37;1.27;;;0.40;1.40;;;1.10;100.00;95978.81;652408;216;23468;-74
2021/12/20 00:11:19;;;;;;;1.30;0.90;;;0.40;1.40;;;1.14;100.00;95980.48;646099;212;31643;-73
2021/12/20 00:14:01;;;;;;;2.83;1.77;;;0.40;1.40;;;1.08;100.00;95973.55;647604;216;42178;-75
2021/12/20 00:16:43;;;;;;;3.47;1.80;;;0.50;1.40;;;1.13;100.00;95968.72;647037;216;31667;-74
2021/12/20 00:19:26;;;;;;;1.23;1.05;;;0.50;1.40;;;1.14;100.00;95961.20;648665;212;32172;-74
2021/12/20 00:22:06;;;;;;;2.00;1.10;;;0.50;1.40;;;1.14;100.00;95967.83;646987;216;32729;-75
2021/12/20 00:24:48;;;;;;;2.47;0.82;;;0.50;1.40;;;1.09;100.00;95974.31;632006;221;31717;-74
2021/12/20 00:27:29;;;;;;;4.20;2.00;;;0.50;1.40;;;1.10;100.00;95971.98;618480;226;42508;-74
2021/12/20 00:30:11;;;;;;;2.40;1.00;;;0.50;1.40;;;1.13;100.00;95969.74;647793;216;42182;-75
2021/12/20 00:32:56;;;;;;;2.08;1.20;;;0.50;1.40;;;1.19;100.00;95958.92;647762;216;32121;-74
2021/12/20 00:35:50;;;;;;;2.00;1.10;;;0.60;1.40;;;1.22;100.00;95958.45;648076;212;31580;-74
2021/12/20 00:41:19;;;;;;;2.40;1.40;;;0.60;1.40;;;1.17;100.00;95952.84;647023;212;31555;-75
2021/12/20 00:44:01;;;;;;;2.60;1.70;;;0.50;1.40;;;1.21;100.00;95957.31;646961;216;42391;-75
2021/12/20 00:46:42;;;;;;;1.62;1.55;;;0.60;1.40;;;1.26;100.00;95961.16;647349;216;31594;-75
2021/12/20 00:49:24;;;;;;;1.80;1.70;;;0.60;1.40;;;1.21;100.00;95967.15;646714;212;31640;-75
2021/12/20 00:52:06;;;;;;;4.03;2.28;;;0.60;1.40;;;1.19;100.00;95960.11;646886;212;31594;-73
2021/12/20 00:57:25;;;;;;;1.35;1.25;;;0.60;1.40;;;1.22;100.00;95956.69;646780;212;42712;-75
2021/12/20 01:00:09;;;;;;;2.70;2.30;;;0.60;1.40;;;1.18;100.00;95954.36;647941;216;31498;-74
2021/12/20 01:02:50;;;;;;;1.52;1.42;;;0.60;1.40;;;1.25;100.00;95951.75;646959;216;42313;-74
2021/12/20 01:05:35;;;;;;;3.60;1.37;;;0.60;1.40;;;1.20;100.00;95949.55;640482;212;42953;-75
2021/12/20 01:08:28;;;;;;;1.62;1.52;;;0.60;1.40;;;1.20;100.00;95957.20;646056;216;32141;-78
2021/12/20 01:11:10;;;;;;;6.82;2.35;;;0.50;1.40;;;1.19;100.00;95949.27;618950;222;31839;-75
2021/12/20 01:13:53;;;;;;;1.98;1.40;;;0.50;1.40;;;1.17;100.00;95950.82;646792;212;42316;-75
2021/12/20 01:16:34;;;;;;;2.10;1.55;;;0.50;1.40;;;1.16;100.00;95951.91;647275;212;42169;-74
2021/12/20 01:19:19;;;;;;;1.95;1.77;;;0.50;1.40;;;1.13;100.00;95954.72;646454;212;42161;-75
2021/12/20 01:22:00;;;;;;;1.60;1.50;;;0.50;1.40;;;1.19;100.00;95953.90;648159;212;31574;-75
2021/12/20 01:24:42;;;;;;;2.75;2.33;;;0.50;1.40;;;1.08;100.00;95955.17;615873;224;32097;-75
2021/12/20 01:27:23;;;;;;;2.35;2.15;;;0.50;1.40;;;1.08;100.00;95963.92;647309;216;42543;-75
2021/12/20 01:30:06;;;;;;;1.80;1.00;;;0.50;1.40;;;1.11;100.00;95968.17;647374;212;43017;-75
2021/12/20 01:32:48;;;;;;;3.17;1.90;;;0.50;1.40;;;1.19;100.00;95966.89;642690;217;31623;-75
2021/12/20 01:35:51;;;;;;;3.45;1.58;;;0.60;1.40;;;1.18;100.00;95968.36;646941;216;31585;-75
2021/12/20 01:38:32;;;;;;;1.40;1.30;;;0.60;1.40;;;1.11;100.00;95962.67;619310;225;42544;-75
2021/12/20 01:41:14;;;;;;;2.35;1.92;;;0.60;1.40;;;1.14;100.00;95958.83;619302;226;42710;-74
2021/12/20 01:43:57;;;;;;;2.10;1.90;;;0.60;1.40;;;1.19;100.00;95956.20;619822;222;43128;-74
2021/12/20 01:49:17;;;;;;;1.17;1.08;;;0.50;1.40;;;1.23;100.00;95950.31;645949;216;31582;-75
2021/12/20 01:52:04;;;;;;;1.90;1.77;;;0.50;1.40;;;1.12;100.00;95954.17;648118;216;31516;-75
2021/12/20 01:54:45;;;;;;;1.40;1.30;;;0.50;1.40;;;1.12;100.00;95951.24;647054;216;42346;-74
2021/12/20 01:57:28;;;;;;;1.10;1.00;;;0.50;1.40;;;1.10;100.00;95955.48;647955;212;42807;-74
2021/12/20 02:00:10;;;;;;;4.32;1.15;;;0.50;1.40;;;1.10;100.00;95951.96;645803;216;31527;-75
2021/12/20 02:03:03;;;;;;;3.60;1.87;;;0.60;1.40;;;1.17;100.00;95951.02;647201;212;42586;-75
2021/12/20 02:05:52;;;;;;;3.00;1.90;;;0.60;1.40;;;1.19;100.00;95945.57;640727;216;31727;-74
2021/12/20 02:08:29;;;;;;;1.80;1.50;;;0.50;1.40;;;1.18;100.00;95936.95;646900;216;42266;-75
2021/12/20 02:11:10;;;;;;;1.52;1.42;;;0.50;1.40;;;1.18;100.00;95930.27;619252;222;43454;-75
2021/12/20 02:13:52;;;;;;;2.10;0.80;;;0.50;1.40;;;1.20;100.00;95928.66;647767;212;32092;-75
2021/12/20 02:16:34;;;;;;;2.50;2.40;;;0.50;1.40;;;1.26;100.00;95935.48;646286;216;31746;-75
2021/12/20 02:19:15;;;;;;;2.60;1.50;;;0.60;1.40;;;1.29;100.00;95934.57;647548;216;31555;-75
2021/12/20 02:21:57;;;;;;;1.12;1.05;;;0.60;1.40;;;1.27;100.00;95936.56;647016;212;31570;-76
2021/12/20 02:24:42;;;;;;;4.03;2.25;;;0.60;1.40;;;1.21;100.00;95936.65;647243;216;31572;-74
2021/12/20 02:27:24;;;;;;;1.58;0.77;;;0.60;1.40;;;1.29;100.00;95943.38;646645;216;42186;-75
2021/12/20 02:30:14;;;;;;;1.60;1.00;;;0.60;1.40;;;1.26;100.00;95943.53;647492;216;31558;-75
2021/12/20 02:38:42;;;;;;;1.45;1.35;;;0.60;1.40;;;1.29;100.00;95936.55;648049;212;31529;-75
2021/12/20 02:41:31;;;;;;;0.85;0.85;;;0.60;1.40;;;1.32;100.00;95930.17;647038;216;42146;-75
2021/12/20 02:44:16;;;;;;;2.20;1.20;;;0.60;1.40;;;1.30;100.00;95927.64;647417;216;31572;-75
2021/12/20 02:47:02;;;;;;;1.40;1.30;;;0.60;1.40;;;1.27;100.00;95927.91;646848;216;31534;-73
2021/12/20 02:49:32;;;;;;;1.40;1.30;;;0.60;1.40;;;1.37;100.00;95930.83;620186;226;32013;-74
2021/12/20 02:52:14;;;;;;;2.37;1.50;;;0.60;1.40;;;1.44;100.00;95931.72;619501;225;31891;-75
2021/12/20 02:54:56;;;;;;;3.23;2.40;;;0.60;1.40;;;1.47;100.00;95932.54;647439;212;31655;-75
2021/12/20 02:57:37;;;;;;;2.70;2.10;;;0.60;1.40;;;1.47;100.00;95934.09;618624;226;31904;-76
2021/12/20 03:00:19;;;;;;;2.47;2.20;;;0.60;1.40;;;1.53;100.00;95925.84;647599;216;42174;-75
2021/12/20 03:03:01;;;;;;;2.60;0.85;;;0.60;1.40;;;1.49;100.00;95921.13;647482;216;32356;-75
2021/12/20 03:05:43;;;;;;;2.80;1.27;;;0.60;1.40;;;1.46;100.00;95916.91;646671;212;32119;-75
2021/12/20 03:08:24;;;;;;;2.42;2.20;;;0.60;1.40;;;1.39;100.00;95921.89;647195;216;32469;-74
2021/12/20 03:11:06;;;;;;;2.70;2.40;;;0.70;1.40;;;1.45;100.00;95922.59;646722;212;32838;-73
2021/12/20 03:13:51;;;;;;;3.72;1.50;;;0.70;1.40;;;1.36;100.00;95927.59;632653;221;32637;-75
2021/12/20 03:16:29;;;;;;;1.60;1.27;;;0.70;1.40;;;1.38;100.00;95933.45;647686;216;31880;-74
2021/12/20 03:19:11;;;;;;;3.28;1.30;;;0.70;1.40;;;1.39;100.00;95934.61;619737;222;32014;-73
2021/12/20 03:21:53;;;;;;;2.85;2.22;;;0.80;1.40;;;1.54;100.00;95935.76;647183;216;31927;-75
2021/12/20 03:24:34;;;;;;;2.73;2.53;;;0.70;1.40;;;1.44;100.00;95933.91;648619;212;31689;-75
2021/12/20 03:27:16;;;;;;;2.62;1.70;;;0.70;1.40;;;1.45;100.00;95929.65;647493;216;31953;-74
2021/12/20 03:29:58;;;;;;;1.30;1.20;;;0.70;1.40;;;1.48;100.00;95929.99;647184;216;31621;-75
2021/12/20 03:32:40;;;;;;;1.05;0.80;;;0.70;1.40;;;1.42;100.00;95929.92;646838;216;31695;-75
2021/12/20 03:35:52;;;;;;;1.20;0.95;;;0.70;1.40;;;1.42;100.00;95929.77;647102;212;31550;-75
2021/12/20 03:38:34;;;;;;;1.87;0.98;;;0.70;1.40;;;1.39;100.00;95939.30;647220;212;32472;-75
2021/12/20 03:41:16;;;;;;;2.30;1.80;;;0.70;1.40;;;1.37;100.00;95932.91;647421;216;32112;-75
2021/12/20 03:43:57;;;;;;;3.60;1.80;;;0.70;1.40;;;1.39;100.00;95932.25;647895;216;31673;-75
2021/12/20 03:46:39;;;;;;;3.10;1.00;;;0.70;1.40;;;1.33;100.00;95934.42;647516;216;31865;-75
2021/12/20 03:49:21;;;;;;;2.97;1.97;;;0.70;1.40;;;1.33;100.00;95935.70;645907;212;32049;-75
2021/12/20 03:52:04;;;;;;;4.87;1.50;;;0.70;1.40;;;1.32;100.00;95928.27;646936;216;32217;-74
2021/12/20 03:54:44;;;;;;;3.90;2.87;;;0.70;1.40;;;1.40;100.00;95933.13;647325;212;31556;-76
2021/12/20 03:57:33;;;;;;;1.55;1.30;;;0.70;1.40;;;1.29;100.00;95929.13;647662;212;31494;-76
2021/12/20 04:00:20;;;;;;;1.65;1.30;;;0.70;1.40;;;1.30;100.00;95927.96;648951;216;31555;-74
2021/12/20 04:03:08;;;;;;;2.30;2.10;;;0.70;1.40;;;1.38;100.00;95932.61;647576;212;31507;-75
2021/12/20 04:05:43;;;;;;;2.95;1.92;;;0.80;1.40;;;1.32;100.00;95938.03;639387;216;31810;-73
2021/12/20 04:08:25;;;;;;;3.30;2.00;;;0.70;1.40;;;1.33;100.00;95932.23;647088;216;31908;-75
2021/12/20 04:11:07;;;;;;;1.40;1.10;;;0.70;1.40;;;1.34;100.00;95927.08;646846;216;31566;-75
2021/12/20 04:13:49;;;;;;;1.75;1.17;;;0.70;1.40;;;1.34;100.00;95921.73;646970;212;31585;-74
2021/12/20 04:16:31;;;;;;;1.50;0.88;;;0.70;1.40;;;1.35;100.00;95924.75;647248;216;31588;-75
2021/12/20 04:19:13;;;;;;;2.47;1.62;;;0.70;1.40;;;1.43;100.00;95925.66;645788;216;42357;-75
2021/12/20 04:21:58;;;;;;;4.40;2.20;;;0.70;1.40;;;1.47;100.00;95934.77;647167;213;32098;-74
2021/12/20 04:24:39;;;;;;;1.50;1.40;;;0.70;1.40;;;1.42;100.00;95931.19;648742;216;32464;-75
2021/12/20 04:27:21;;;;;;;2.50;1.60;;;0.70;1.40;;;1.48;100.00;95931.81;647406;216;33228;-75
2021/12/20 04:30:10;;;;;;;1.55;1.42;;;0.70;1.40;;;1.43;100.00;95931.00;647532;216;31660;-74
2021/12/20 04:32:51;;;;;;;5.03;1.65;;;0.70;1.40;;;1.39;100.00;95927.60;647319;212;31700;-75
2021/12/20 04:35:51;;;;;;;2.20;2.00;;;0.70;1.40;;;1.37;100.00;95927.57;646928;212;31756;-75
2021/12/20 04:38:33;;;;;;;2.10;1.17;;;0.70;1.40;;;1.38;100.00;95930.89;647337;212;31555;-75
2021/12/20 04:41:15;;;;;;;1.30;1.10;;;0.70;1.40;;;1.34;100.00;95930.39;647834;216;42273;-75
2021/12/20 04:43:56;;;;;;;2.45;2.25;;;0.70;1.40;;;1.37;100.00;95937.28;648742;216;42191;-75
2021/12/20 04:46:38;;;;;;;1.75;1.23;;;0.70;1.40;;;1.45;100.00;95940.77;647104;212;31523;-74
2021/12/20 04:49:20;;;;;;;8.48;2.17;;;0.70;1.40;;;1.51;100.00;95937.67;647104;216;31515;-75
2021/12/20 04:52:01;;;;;;;3.58;1.60;;;0.80;1.40;;;1.49;100.00;95940.53;646514;212;42626;-75
2021/12/20 04:54:43;;;;;;;3.12;2.80;;;0.80;1.40;;;1.51;100.00;95949.36;647278;212;31554;-75
2021/12/20 04:57:28;;;;;;;3.20;1.70;;;0.80;1.40;;;1.57;100.00;95945.74;619841;226;31882;-74
2021/12/20 05:00:11;;;;;;;1.17;1.12;;;0.80;1.40;;;1.50;100.00;95945.92;647130;212;31568;-75
2021/12/20 05:02:56;;;;;;;4.10;2.20;;;0.70;1.40;;;1.49;100.00;95945.66;646016;216;31590;-75
2021/12/20 05:05:37;;;;;;;1.07;1.07;;;0.70;1.40;;;1.44;100.00;95951.55;647399;212;31912;-75
2021/12/20 05:08:22;;;;;;;4.28;2.42;;;0.70;1.40;;;1.54;100.00;95953.87;647400;216;42228;-74
2021/12/20 05:11:04;;;;;;;1.40;1.30;;;0.70;1.40;;;1.48;100.00;95950.67;646316;216;31560;-74
2021/12/20 05:13:46;;;;;;;1.70;1.30;;;0.70;1.40;;;1.50;100.00;95955.06;647484;212;31629;-75
2021/12/20 05:16:27;;;;;;;3.72;2.67;;;0.70;1.40;;;1.60;100.00;95959.81;647563;216;31577;-75
2021/12/20 05:21:46;;;;;;;2.65;1.75;;;0.80;1.40;;;1.76;100.00;95963.91;646432;216;31537;-74
2021/12/20 05:24:29;;;;;;;3.20;2.08;;;0.80;1.40;;;1.85;100.00;95973.02;649118;216;42127;-75
2021/12/20 05:27:11;;;;;;;2.00;1.30;;;0.80;1.40;;;1.83;100.00;95975.60;648190;216;31564;-75
2021/12/20 05:29:54;;;;;;;2.50;2.10;;;0.80;1.40;;;1.93;100.00;95982.73;647950;216;31671;-75
2021/12/20 05:32:35;;;;;;;3.50;1.60;;;0.80;1.40;;;1.81;100.00;95979.36;646811;216;31538;-75
2021/12/20 05:35:50;;;;;;;2.00;1.90;;;0.80;1.40;;;1.77;100.00;95974.80;647479;216;31965;-75
2021/12/20 05:38:34;;;;;;;3.60;2.30;;;0.80;1.40;;;1.75;100.00;95978.64;615951;227;31912;-75
2021/12/20 05:41:16;;;;;;;1.30;1.10;;;0.80;1.40;;;1.71;100.00;95982.95;647137;216;31522;-75
2021/12/20 05:44:01;;;;;;;2.10;1.50;;;0.80;1.40;;;1.70;100.00;95984.70;647574;212;32182;-75
2021/12/20 05:46:42;;;;;;;2.60;2.50;;;0.80;1.40;;;1.70;100.00;95982.81;647765;212;31642;-75
2021/12/20 05:49:27;;;;;;;2.28;1.37;;;0.80;1.40;;;1.75;100.00;95980.88;647252;216;31603;-75
2021/12/20 05:52:12;;;;;;;4.00;1.50;;;0.80;1.40;;;1.78;100.00;95972.24;647203;212;31928;-75
2021/12/20 05:54:55;;;;;;;2.37;2.10;;;0.80;1.40;;;1.76;100.00;95978.56;618704;226;31935;-75
2021/12/20 05:57:36;;;;;;;2.00;1.80;;;0.80;1.40;;;1.89;100.00;95985.42;647729;216;31593;-75
2021/12/20 06:00:18;;;;;;;1.45;1.35;;;0.80;1.40;;;1.79;100.00;95984.88;647304;216;31560;-75
2021/12/20 06:03:03;;;;;;;3.28;1.92;;;0.80;1.40;;;1.73;100.00;95985.60;647453;216;31574;-74
2021/12/20 06:05:45;;;;;;;2.17;1.95;;;0.80;1.40;;;1.71;100.00;95984.91;618813;226;32230;-75
2021/12/20 06:08:30;;;;;;;1.90;1.80;;;0.80;1.40;;;1.74;100.00;95991.55;646821;216;31535;-75
2021/12/20 06:11:13;;;;;;;1.92;1.08;;;0.80;1.40;;;1.67;100.00;95985.92;646993;212;31572;-75
2021/12/20 06:13:53;;;;;;;1.90;1.80;;;0.80;1.40;;;1.68;100.00;95983.27;648199;216;31549;-75
2021/12/20 06:16:35;;;;;;;2.60;2.40;;;0.90;1.40;;;1.67;100.00;95989.09;647572;212;42244;-75
2021/12/20 06:19:17;;;;;;;2.10;1.70;;;0.90;1.40;;;1.75;100.00;95995.80;647342;216;31595;-75
2021/12/20 06:21:59;;;;;;;1.80;1.50;;;0.90;1.40;;;1.77;100.00;95998.69;646989;212;32215;-75
2021/12/20 06:24:40;;;;;;;2.78;1.85;;;0.90;1.40;;;1.91;100.00;95994.56;646406;212;32780;-75
2021/12/20 06:27:22;;;;;;;2.55;2.03;;;0.90;1.40;;;1.86;100.00;95999.60;647259;212;31952;-75
2021/12/20 06:30:08;;;;;;;1.65;1.55;;;0.90;1.40;;;1.81;100.00;95993.89;619439;226;33525;-73
2021/12/20 06:32:46;;;;;;;2.00;1.70;;;0.90;1.40;;;1.83;100.00;95995.59;646145;216;31560;-75
2021/12/20 06:35:52;;;;;;;3.62;3.33;;;0.90;1.40;;;1.73;100.00;95995.70;647328;216;31605;-74
2021/12/20 06:38:43;;;;;;;1.45;1.35;;;0.90;1.40;;;1.71;100.00;95996.64;645684;216;31568;-75
2021/12/20 06:41:19;;;;;;;3.50;1.90;;;0.90;1.40;;;1.73;100.00;96002.08;647287;216;32160;-75
2021/12/20 06:44:02;;;;;;;3.20;1.70;;;0.90;1.40;;;1.90;100.00;96007.80;647134;212;31509;-75
2021/12/20 06:46:42;;;;;;;3.90;2.20;;;1.00;1.40;;;1.99;100.00;96005.89;647765;212;31576;-75
2021/12/20 06:49:27;;;;;;;5.30;2.97;;;1.00;1.40;;;1.85;100.00;96003.05;647239;216;31529;-75
2021/12/20 06:52:08;;;;;;;2.42;1.60;;;1.00;1.40;;;1.87;100.00;96002.55;647606;216;31797;-75
2021/12/20 06:54:52;;;;;;;1.90;1.80;;;1.00;1.40;;;1.85;100.00;96016.11;647086;212;32457;-75
2021/12/20 06:57:32;;;;;;;2.03;1.83;;;1.00;1.40;;;1.86;100.00;96021.94;647289;212;31799;-75
2021/12/20 07:00:14;;;;;;;4.40;2.20;;;1.00;1.40;;;1.93;100.00;96018.59;646608;212;31640;-74
2021/12/20 07:02:59;;;;;;;4.65;2.17;;;1.00;1.40;;;1.89;100.00;96015.47;619812;222;32078;-75
2021/12/20 07:05:40;;;;;;;2.50;2.22;;;1.00;1.40;;;1.94;100.00;96015.64;647718;216;31563;-75
2021/12/20 07:08:22;;;;;;;3.00;2.33;;;1.00;1.40;;;1.97;100.00;96017.95;619288;226;43582;-75
2021/12/20 07:11:05;;;;;;;2.83;1.80;;;1.10;1.40;;;2.11;100.00;96018.09;646804;212;31589;-75
2021/12/20 07:13:45;;;;;;;3.55;2.20;;;1.10;1.40;;;2.09;100.00;96014.45;632090;222;32374;-75
2021/12/20 07:16:32;;;;;;;2.15;2.00;;;1.10;1.40;;;1.92;100.00;96009.55;648376;212;31607;-75
2021/12/20 07:19:12;;;;;;;2.00;0.70;;;1.10;1.40;;;1.89;100.00;96009.81;620950;226;31947;-74
2021/12/20 07:21:54;;;;;;;2.62;2.20;;;1.00;1.40;;;2.07;100.00;96016.30;646696;216;32251;-72
2021/12/20 07:24:36;;;;;;;3.33;2.10;;;1.10;1.40;;;2.00;100.00;96018.22;647297;212;31716;-75
2021/12/20 07:27:18;;;;;;;1.80;1.48;;;1.10;1.40;;;2.00;100.00;96013.40;646913;216;32264;-76
2021/12/20 07:30:00;;;;;;;3.60;1.50;;;1.10;1.40;;;1.89;100.00;96014.47;647261;212;31657;-75
2021/12/20 07:32:42;;;;;;;3.72;1.40;;;1.10;1.40;;;1.90;100.00;96018.23;647412;215;32179;-75
2021/12/20 07:35:54;;;;;;;2.30;1.60;;;1.10;1.40;;;1.92;100.00;96016.61;647099;212;31687;-74
2021/12/20 07:38:36;;;;;;;1.40;1.27;;;1.10;1.40;;;1.90;100.00;96022.34;620254;225;32009;-75
2021/12/20 07:41:18;;;;;;;1.67;1.58;;;1.10;1.40;;;1.95;100.00;96020.20;647303;216;32091;-76
2021/12/20 07:44:01;;;;;;;1.48;1.37;;;1.10;1.40;;;2.05;100.00;96022.83;648258;212;31569;-75
2021/12/20 07:49:16;;;;;;;2.15;1.75;;;1.20;1.40;;;2.12;100.00;96034.09;620752;225;42519;-74
2021/12/20 07:51:58;;;;;;;1.10;0.82;;;1.20;1.40;;;2.10;100.00;96033.16;646699;216;31511;-75
2021/12/20 07:54:40;;;;;;;1.73;1.55;;;1.20;1.40;;;2.14;100.00;96036.48;647005;212;31591;-75
2021/12/20 07:57:22;;;;;;;2.20;2.10;;;1.20;1.40;;;2.18;100.00;96032.07;647160;212;31601;-75
2021/12/20 08:00:09;;;;;;;2.58;2.47;;;1.30;1.40;;;2.21;100.00;96033.59;648002;216;31630;-75
2021/12/20 08:02:51;;;;;;;3.37;1.77;;;1.20;1.40;;;2.07;100.00;96034.22;620034;222;32074;-74
2021/12/20 08:05:32;;;;;;;3.80;2.40;;;1.20;1.40;;;2.14;100.00;96034.72;619169;226;31864;-75
2021/12/20 08:08:14;;;;;;;2.40;1.70;;;1.30;1.40;;;2.03;100.00;96036.02;620059;226;31855;-75
2021/12/20 08:10:55;;;;;;;3.92;2.30;;;1.30;1.40;;;2.07;100.00;96034.05;647167;216;31677;-76
2021/12/20 08:16:13;;;;;;;1.67;1.58;;;1.20;1.40;;;2.07;100.00;96029.41;646898;212;31962;-74
2021/12/20 08:18:54;;;;;;;2.00;1.35;;;1.20;1.40;;;2.18;100.00;96032.55;648421;214;31576;-74
2021/12/20 08:21:36;;;;;;;1.80;1.25;;;1.30;1.40;;;2.16;100.00;96035.91;619343;222;42490;-74
2021/12/20 08:24:18;;;;;;;2.10;2.00;;;1.30;1.40;;;2.18;100.00;96036.94;647499;216;32177;-75
2021/12/20 08:27:06;;;;;;;2.43;1.80;;;1.30;1.40;;;2.33;100.00;96038.92;646370;216;31878;-75
2021/12/20 08:29:53;;;;;;;2.20;1.60;;;1.30;1.40;;;2.33;100.00;96042.45;642006;217;31558;-75
2021/12/20 08:32:36;;;;;;;1.00;1.00;;;1.30;1.40;;;2.34;100.00;96039.21;646275;212;31540;-75
2021/12/20 08:35:53;;;;;;;3.37;1.85;;;1.40;1.40;;;2.24;100.00;96045.08;620242;222;32621;-75
2021/12/20 08:38:34;;;;;;;3.95;2.20;;;1.30;1.40;;;2.37;100.00;96039.70;647403;216;32226;-75
2021/12/20 08:41:17;;;;;;;2.42;2.00;;;1.40;1.40;;;2.57;100.00;96038.70;647049;216;32156;-74
2021/12/20 08:43:58;;;;;;;2.30;1.70;;;1.40;1.40;;;2.64;100.00;96046.42;642878;216;38537;-75
2021/12/20 08:46:40;;;;;;;2.62;1.92;;;1.40;1.40;;;2.60;100.00;96047.44;647081;216;31613;-75
2021/12/20 08:49:23;;;;;;;2.00;1.77;;;1.50;1.40;;;2.53;100.00;96047.84;647541;212;31571;-76
2021/12/20 08:52:04;;;;;;;3.72;3.03;;;1.50;1.40;;;2.84;100.00;96047.02;646144;216;31601;-76
2021/12/20 08:54:49;;;;;;;2.80;1.60;;;1.60;1.40;;;2.77;100.00;96052.70;620364;226;31930;-76
2021/12/20 08:57:31;;;;;;;1.90;1.40;;;1.60;1.40;;;2.81;100.00;96056.11;646496;216;31555;-76
2021/12/20 09:00:14;;;;;;;2.33;1.23;;;1.60;1.40;;;2.94;100.00;96060.52;647020;216;31597;-76
2021/12/20 09:02:56;;;;;;;2.55;2.35;;;1.60;1.40;;;2.90;100.00;96059.97;646753;212;32552;-75
2021/12/20 09:05:37;;;;;;;4.20;2.97;;;1.70;1.40;;;2.75;100.00;96055.94;641074;216;31723;-77
2021/12/20 09:08:20;;;;;;;2.12;1.92;;;1.70;1.40;;;2.76;100.00;96060.92;647410;212;31565;-75
2021/12/20 09:11:04;;;;;;;2.92;2.72;;;1.70;1.40;;;2.84;100.00;96069.14;647867;212;31498;-76
2021/12/20 09:13:45;;;;;;;2.10;1.60;;;1.70;1.40;;;2.78;100.00;96070.34;646171;212;31564;-75
2021/12/20 09:16:27;;;;;;;3.50;2.12;;;1.70;1.40;;;2.94;100.00;96065.18;646676;212;31583;-76
2021/12/20 09:19:12;;;;;;;1.90;1.80;;;1.70;1.40;;;2.94;100.00;96065.98;648316;216;31521;-76
2021/12/20 09:21:53;;;;;;;2.10;1.30;;;1.70;1.40;;;2.91;100.00;96071.34;647332;216;31534;-76
2021/12/20 09:24:35;;;;;;;2.17;2.05;;;1.70;1.40;;;3.07;100.00;96069.61;632260;217;31718;-77
2021/12/20 09:27:17;;;;;;;2.70;2.42;;;1.70;1.40;;;3.13;100.00;96063.88;647084;216;32065;-76
2021/12/20 09:29:58;;;;;;;5.10;2.28;;;1.90;1.40;;;3.04;100.00;96069.09;647486;212;31712;-75
2021/12/20 09:32:43;;;;;;;2.45;1.80;;;1.80;1.40;;;3.08;100.00;96062.08;646146;212;31540;-76
2021/12/20 09:35:53;;;;;;;5.22;3.62;;;1.90;1.40;;;3.19;100.00;96064.59;619640;222;31946;-75
2021/12/20 09:38:33;;;;;;;2.22;2.03;;;2.00;1.40;;;3.40;100.00;96067.37;647567;212;31562;-76
2021/12/20 09:41:59;;;;;;;1.77;1.67;;;2.00;1.40;;;3.34;100.00;96069.73;647662;216;31564;-75
2021/12/20 09:44:01;;;;;;;1.30;1.10;;;2.10;1.40;;;3.26;100.00;96069.97;646719;212;31536;-76
2021/12/20 09:46:42;;;;;;;2.00;1.80;;;1.90;1.40;;;3.27;100.00;96064.41;647724;212;31600;-76
2021/12/20 09:49:24;;;;;;;0.75;0.75;;;1.90;1.40;;;3.38;100.00;96063.05;647035;216;31557;-76
2021/12/20 09:52:09;;;;;;;4.68;2.37;;;1.90;1.40;;;3.26;100.00;96062.25;646308;212;31641;-75
2021/12/20 09:54:50;;;;;;;2.58;2.33;;;2.00;1.40;;;3.21;100.00;96057.88;647311;212;31585;-75
2021/12/20 09:57:35;;;;;;;3.00;2.00;;;2.00;1.40;;;3.28;100.00;96061.42;647710;212;32166;-76
2021/12/20 10:00:17;;;;;;;3.12;2.22;;;2.00;1.40;;;3.30;100.00;96060.28;647180;212;42781;-76
2021/12/20 10:03:01;;;;;;;3.05;2.15;;;2.10;1.40;;;3.13;100.00;96059.65;620462;226;32076;-76
2021/12/20 10:05:43;;;;;;;4.50;2.75;;;2.00;1.40;;;3.11;100.00;96061.55;614748;222;32260;-76
2021/12/20 10:08:33;;;;;;;2.83;2.58;;;2.00;1.40;;;3.33;100.00;96064.67;647886;216;31556;-76
2021/12/20 10:11:21;;;;;;;2.50;2.20;;;2.20;1.40;;;3.52;100.00;96057.86;647780;212;31659;-76
2021/12/20 10:14:06;;;;;;;2.22;2.03;;;2.20;1.40;;;3.64;100.00;96052.13;647087;212;31486;-77
2021/12/20 10:16:48;;;;;;;2.50;2.30;;;2.30;1.40;;;3.88;100.00;96054.95;646481;212;31583;-76
2021/12/20 10:19:34;;;;;;;5.60;1.80;;;2.40;1.40;;;3.77;100.00;96054.16;646676;216;31520;-75
2021/12/20 10:22:21;;;;;;;2.35;1.73;;;2.40;1.40;;;3.73;100.00;96056.89;646885;216;32314;-76
2021/12/20 10:25:03;;;;;;;2.00;1.90;;;2.30;1.40;;;3.61;100.00;96051.16;620280;222;31904;-76
2021/12/20 10:30:28;;;;;;;3.00;2.75;;;2.40;1.40;;;3.94;100.00;96049.06;647247;212;42155;-76
2021/12/20 10:35:54;;;;;;;3.40;2.00;;;2.70;1.40;;;4.41;100.00;96044.66;619908;225;31932;-76
2021/12/20 10:38:38;;;;;;;2.70;2.50;;;2.90;1.40;;;4.46;100.00;96041.55;647150;212;31541;-76
2021/12/20 10:41:22;;;;;;;3.45;2.62;;;2.90;1.40;;;4.37;100.00;96042.52;646172;216;31687;-75
2021/12/20 10:44:14;;;;;;;2.03;1.92;;;2.80;1.40;;;4.22;100.00;96050.84;647264;212;31992;-76
2021/12/20 10:49:26;;;;;;;4.97;4.30;;;2.70;1.40;;;4.26;100.00;96048.42;646301;212;32215;-75
2021/12/20 10:52:09;;;;;;;3.42;2.50;;;2.70;1.40;;;4.26;100.00;96049.77;646967;216;31612;-76
2021/12/20 10:54:50;;;;;;;3.75;2.67;;;2.70;1.40;;;4.22;100.00;96039.67;619900;226;31923;-76
2021/12/20 10:57:32;;;;;;;2.65;2.45;;;2.70;1.40;;;3.96;100.00;96040.66;646022;212;31563;-75
2021/12/20 11:00:17;;;;;;;1.85;1.75;;;2.60;1.40;;;3.86;100.00;96043.50;619223;226;31911;-76
2021/12/20 11:06:13;;;;;;;4.18;2.22;;;2.60;1.40;;;3.79;100.00;96039.39;639743;216;42353;-76
2021/12/20 11:11:41;;;;;;;1.85;1.55;;;2.50;1.40;;;3.79;100.00;96030.16;646779;212;32227;-75
2021/12/20 11:14:23;;;;;;;1.70;1.60;;;2.60;1.40;;;3.71;100.00;96032.00;647127;216;31553;-76
2021/12/20 11:17:08;;;;;;;3.70;1.40;;;2.50;1.40;;;3.95;100.00;96032.33;648728;212;31546;-76
2021/12/20 11:22:27;;;;;;;3.65;3.33;;;2.90;1.40;;;4.32;100.00;96040.79;647920;216;32117;-76
2021/12/20 11:25:11;;;;;;;2.70;2.50;;;2.80;1.40;;;4.45;100.00;96048.03;647496;216;31557;-75
2021/12/20 11:27:53;;;;;;;1.92;1.83;;;2.80;1.40;;;4.27;100.00;96041.13;618781;222;31894;-75
2021/12/20 11:30:36;;;;;;;1.65;1.55;;;2.70;1.40;;;4.32;100.00;96038.22;619560;222;31870;-76
2021/12/20 11:35:51;;;;;;;5.15;1.90;;;2.80;1.40;;;4.21;100.00;96029.58;619699;226;31949;-75
2021/12/20 11:38:33;;;;;;;3.70;3.40;;;2.70;1.40;;;4.01;100.00;96038.91;646892;216;31590;-75
2021/12/20 11:41:15;;;;;;;3.28;2.60;;;2.70;1.40;;;3.89;100.00;96039.25;647328;216;31549;-76
2021/12/20 11:43:56;;;;;;;2.35;1.90;;;2.70;1.40;;;4.04;100.00;96038.30;647257;212;42403;-76
2021/12/20 11:46:42;;;;;;;2.15;1.67;;;2.70;1.40;;;4.08;100.00;96037.17;619142;222;31946;-76
2021/12/20 11:49:23;;;;;;;3.15;2.03;;;2.70;1.40;;;4.16;100.00;96032.20;646380;216;31586;-75
2021/12/20 11:52:24;;;;;;;2.20;1.90;;;2.70;1.40;;;4.05;100.00;96037.67;648602;212;31565;-75
2021/12/20 11:55:30;;;;;;;3.40;2.45;;;2.60;1.40;;;4.34;100.00;96033.62;646756;216;31579;-76
2021/12/20 11:58:23;;;;;;;1.50;1.40;;;2.70;1.40;;;4.21;100.00;96035.37;646436;216;31548;-77
2021/12/20 12:01:05;;;;;;;3.42;1.92;;;2.70;1.40;;;3.83;100.00;96030.53;631180;222;31764;-75
2021/12/20 12:03:55;;;;;;;1.70;1.50;;;2.70;1.40;;;3.95;100.00;96030.50;647070;212;31826;-77
2021/12/20 12:06:37;;;;;;;4.22;3.00;;;2.80;1.40;;;4.16;100.00;96022.48;635724;212;31760;-76
2021/12/20 12:09:20;;;;;;;1.20;1.10;;;2.90;1.40;;;4.84;100.00;96022.10;647473;212;31516;-76
2021/12/20 12:12:00;;;;;;;2.87;2.40;;;3.10;1.40;;;4.62;100.00;96021.99;647716;216;31504;-76
2021/12/20 12:17:24;;;;;;;1.60;1.50;;;3.10;1.40;;;4.88;100.00;96021.81;619388;226;31899;-76
2021/12/20 12:20:06;;;;;;;2.00;1.60;;;3.10;1.40;;;4.84;100.00;96023.66;646475;212;42155;-76
2021/12/20 12:22:48;;;;;;;2.12;1.92;;;3.10;1.40;;;5.15;100.00;96019.94;618922;226;43317;-76
2021/12/20 12:25:37;;;;;;;1.58;1.48;;;3.20;1.40;;;4.96;100.00;96018.45;647330;216;31619;-76